Tampa, FL

2:12 PM EDT on October 23, 2014 (GMT -0400)
The University of Tampa | Change Station
CLOSE
Current Station
Personal Weather Station
Location: Tampa, FL
Elevation: 30 ft
Nearby Weather Stations

Elev 30 ft 27.95 °N, 82.46 °W | Updated 0 second ago

Clear
Clear
81.4 °F
Feels Like 82 °F
N
6.0
Wind Variable Wind from North
Gusts 13.0 mph

Today
High -- | Low -- °F
--% Chance of Precip.
Yesterday
High -- | Low -- °F
Precip. -- in
7:34 AM 6:52 PM
Waning Crescent, 0% visible
Pressure 29.96 in
Visibility 10.0 miles
Clouds Few 20000 ft
Heat Index 82 °F
Dew Point 59 °F
Humidity 46%
Rainfall 0.00 in
Snow Depth Not available.
UV 9 out of 12
Pollen 6.40 out of 12
Air Quality Not available.
Flu Activity Local Activity
METAR KTPA 231753Z VRB05KT 10SM FEW200 27/13 A2996 RMK AO2 SLP145 T02720133 10272 20172 58018

More Conditions Fewer Conditions

Pressure 29.96 in
Visibility 10.0 miles
Clouds Few 20000 ft
Heat Index 82 °F
Dew Point 59 °F
Humidity 46%
Rainfall 0.00 in
Snow Depth Not available.
UV 9 out of 12
Pollen 6.40 out of 12
Air Quality Not available.
Flu Activity Local Activity
METAR KTPA 231753Z VRB05KT 10SM FEW200 27/13 A2996 RMK AO2 SLP145 T02720133 10272 20172 58018

More Conditions Fewer Conditions

10-Day Weather Forecast

Almanac

Astronomy

Oct. 23, 2014 Rise Set
Actual Time 7:34 AM EDT 6:52 PM EDT
Civil Twilight 7:11 AM EDT 7:16 PM EDT
Nautical Twilight 6:43 AM EDT 7:44 PM EDT
Astronomical Twilight 6:16 AM EDT 8:11 PM EDT
Moon 7:15 AM EDT 6:53 PM EDT
Length of Visible Light 12h 05m
Length of Day
11h 17m
Tomorrow will be 1m 32s shorter.
Waning Crescent, 0% of the Moon is Illuminated
Today
Waning Crescent
Oct 23
New
Oct 30
First Quarter
Nov 6
Full
Nov 14
Last Quarter

Today's Extremes

State Highs State Lows

Community

WunderPhotos

Upload Photos

1,764,333 photos uploaded!

WunderBlogs® & News

By Dr. Jeff Masters
Director of Meteorology, Weather Underground
By Kari Strenfel
Meteorologist, Weather Underground
By Christopher C. Burt
Weather Historian, Weather Underground
October 23, 2014
October 23, 2014
October 23, 2014

Nearby

Snow Depth

Station Depth Elevation
No new snow has been reported.

Earthquake Activity

City Distance Mag. Time & Date
No recent earthquake activity has been reported nearby.
Minimum magnitude displayed is 2.5.

Coastal Water Temperatures

Place Temperature
St Petersburg, FL 81.0 °F
Old Port Tampa, FL 78.1 °F
McKay Bay Entrance, FL 80.1 °F

Nearby Weather Stations